createdAt,value
2019-05-17T00:01:57.668Z,10.57
2019-05-17T00:04:30.490Z,10.20
2019-05-17T00:07:02.779Z,10.53
2019-05-17T00:09:37.263Z,13.27
2019-05-17T00:12:08.989Z,12.20
2019-05-17T00:14:41.222Z,13.13
2019-05-17T00:17:13.471Z,10.87
2019-05-17T00:19:46.461Z,14.63
2019-05-17T00:22:18.834Z,9.97
2019-05-17T00:24:51.075Z,12.97
2019-05-17T00:27:23.785Z,12.23
2019-05-17T00:29:57.127Z,11.63
2019-05-17T00:32:29.553Z,11.43
2019-05-17T00:35:01.935Z,13.23
2019-05-17T00:37:34.120Z,14.03
2019-05-17T00:40:07.328Z,12.17
2019-05-17T00:42:39.685Z,11.10
2019-05-17T00:45:11.950Z,13.40
2019-05-17T00:47:46.596Z,14.70
2019-05-17T00:50:18.544Z,14.20
2019-05-17T00:52:52.777Z,13.23
2019-05-17T00:55:26.849Z,13.33
2019-05-17T00:58:01.684Z,13.10
2019-05-17T01:00:37.600Z,13.23
2019-05-17T01:03:09.904Z,13.13
2019-05-17T01:05:42.180Z,19.30
2019-05-17T01:08:14.457Z,15.77
2019-05-17T01:10:47.398Z,15.87
2019-05-17T01:13:19.986Z,15.13
2019-05-17T01:15:52.235Z,17.47
2019-05-17T01:18:26.770Z,14.17
2019-05-17T01:21:00.684Z,14.53
2019-05-17T01:23:33.285Z,13.90
2019-05-17T01:26:07.529Z,14.47
2019-05-17T01:28:41.460Z,17.20
2019-05-17T01:31:13.686Z,13.50
2019-05-17T01:33:47.015Z,13.33
2019-05-17T01:36:19.591Z,17.70
2019-05-17T01:38:51.863Z,13.37
2019-05-17T01:41:24.080Z,14.63
2019-05-17T01:43:56.942Z,15.40
2019-05-17T01:46:29.335Z,16.07
2019-05-17T01:49:01.915Z,14.23
2019-05-17T01:51:34.245Z,14.63
2019-05-17T01:54:06.920Z,16.03
2019-05-17T01:56:39.207Z,16.63
2019-05-17T01:59:11.765Z,13.87
2019-05-17T02:01:43.998Z,13.53
2019-05-17T02:04:17.515Z,14.00
2019-05-17T02:06:49.946Z,13.47
2019-05-17T02:09:34.965Z,16.00
2019-05-17T02:11:57.177Z,17.70
2019-05-17T02:14:29.709Z,15.63
2019-05-17T02:17:01.979Z,13.17
2019-05-17T02:19:34.220Z,19.10
2019-05-17T02:22:07.462Z,14.57
2019-05-17T02:24:39.921Z,14.70
2019-05-17T02:27:12.151Z,17.37
2019-05-17T02:29:44.391Z,14.87
2019-05-17T02:32:16.657Z,14.77
2019-05-17T02:34:52.952Z,13.57
2019-05-17T02:37:23.899Z,14.30
2019-05-17T02:40:03.059Z,13.27
2019-05-17T02:42:32.981Z,14.50
2019-05-17T02:45:06.101Z,14.17
2019-05-17T02:47:38.338Z,14.10
2019-05-17T02:50:12.946Z,15.90
2019-05-17T02:52:44.486Z,14.93
2019-05-17T02:55:16.736Z,14.10
2019-05-17T02:57:49.035Z,16.47
2019-05-17T03:00:23.947Z,15.07
2019-05-17T03:02:55.215Z,16.10
2019-05-17T03:05:27.463Z,15.60
2019-05-17T03:08:03.622Z,15.67
2019-05-17T03:10:34.124Z,16.03
2019-05-17T03:13:06.443Z,14.63
2019-05-17T03:15:38.711Z,15.93
2019-05-17T03:18:13.434Z,15.03
2019-05-17T03:20:46.002Z,17.30
2019-05-17T03:23:18.240Z,17.83
2019-05-17T03:25:52.490Z,15.87
2019-05-17T03:28:25.545Z,16.70
2019-05-17T03:30:57.762Z,17.43
2019-05-17T03:33:35.228Z,20.10
2019-05-17T03:36:06.463Z,16.77
2019-05-17T03:38:37.861Z,19.33
2019-05-17T03:41:22.826Z,18.03
2019-05-17T03:43:44.475Z,17.90
2019-05-17T03:46:16.905Z,18.63
2019-05-17T03:48:49.112Z,21.20
2019-05-17T03:51:23.361Z,17.90
2019-05-17T03:53:55.310Z,18.77
2019-05-17T03:56:27.720Z,22.40
2019-05-17T03:59:03.409Z,18.67
2019-05-17T04:01:34.077Z,19.87
2019-05-17T04:04:06.370Z,19.47
2019-05-17T04:06:38.634Z,22.53
2019-05-17T04:09:14.066Z,21.27
2019-05-17T04:11:46.534Z,21.40
2019-05-17T04:14:18.754Z,21.23
2019-05-17T04:16:53.671Z,19.57
2019-05-17T04:19:24.947Z,19.67
2019-05-17T04:21:57.380Z,22.67
2019-05-17T04:24:32.449Z,20.80
2019-05-17T04:27:04.001Z,23.13
2019-05-17T04:29:36.345Z,20.67
2019-05-17T04:32:08.645Z,20.93
2019-05-17T04:34:43.679Z,22.80
2019-05-17T04:37:14.919Z,22.10
2019-05-17T04:39:47.150Z,21.63
2019-05-17T04:42:22.418Z,21.43
2019-05-17T04:44:53.562Z,22.30
2019-05-17T04:47:28.200Z,21.40
2019-05-17T04:50:03.602Z,20.13
2019-05-17T04:52:34.471Z,21.67
2019-05-17T04:55:06.799Z,21.27
2019-05-17T04:57:43.324Z,21.33
2019-05-17T05:00:14.122Z,20.13
2019-05-17T05:02:46.411Z,19.77
2019-05-17T05:05:18.645Z,24.53
2019-05-17T05:07:53.468Z,18.80
2019-05-17T05:10:24.901Z,21.00
2019-05-17T05:12:57.341Z,21.17
2019-05-17T05:15:32.232Z,20.97
2019-05-17T05:18:04.164Z,21.07
2019-05-17T05:20:36.471Z,22.43
2019-05-17T05:23:08.746Z,22.97
2019-05-17T05:25:42.994Z,22.03
2019-05-17T05:28:14.951Z,19.90
2019-05-17T05:30:47.190Z,18.70
2019-05-17T05:33:22.167Z,18.57
2019-05-17T05:35:54.796Z,17.63
2019-05-17T05:38:27.029Z,17.10
2019-05-17T05:41:01.597Z,15.80
2019-05-17T05:43:33.437Z,15.00
2019-05-17T05:46:05.740Z,16.17
2019-05-17T05:48:38.014Z,16.87
2019-05-17T05:51:13.420Z,15.17
2019-05-17T05:53:44.428Z,12.90
2019-05-17T05:56:16.704Z,14.93
2019-05-17T05:58:49.030Z,17.13
2019-05-17T06:01:21.978Z,16.33
2019-05-17T06:03:55.576Z,14.23
2019-05-17T06:06:27.845Z,13.40
2019-05-17T06:09:02.574Z,12.00
2019-05-17T06:11:35.630Z,13.17
2019-05-17T06:14:07.856Z,11.60
2019-05-17T06:16:42.290Z,14.47
2019-05-17T06:19:14.135Z,14.23
2019-05-17T06:21:46.423Z,17.20
2019-05-17T06:24:18.672Z,13.80
2019-05-17T06:26:52.518Z,14.80
2019-05-17T06:29:25.004Z,16.27
2019-05-17T06:31:57.371Z,17.90
2019-05-17T06:34:29.667Z,16.57
2019-05-17T06:37:03.553Z,16.17
2019-05-17T06:39:35.834Z,15.67
2019-05-17T06:42:08.053Z,17.23
2019-05-17T06:44:41.893Z,17.90
2019-05-17T06:47:15.397Z,20.57
2019-05-17T06:49:50.503Z,17.73
2019-05-17T06:52:22.624Z,15.13
2019-05-17T06:54:55.297Z,20.03
2019-05-17T06:57:27.580Z,16.07
2019-05-17T07:00:02.440Z,16.20
2019-05-17T07:02:36.176Z,15.73
2019-05-17T07:05:09.893Z,17.43
2019-05-17T07:07:42.386Z,17.13
2019-05-17T07:10:14.642Z,17.17
2019-05-17T07:12:57.831Z,17.20
2019-05-17T07:15:21.236Z,17.13
2019-05-17T07:17:53.470Z,17.33
2019-05-17T07:20:25.718Z,16.33
2019-05-17T07:23:00.349Z,14.43
2019-05-17T07:25:32.588Z,14.93
2019-05-17T07:28:04.845Z,16.03
2019-05-17T07:30:36.940Z,17.80
2019-05-17T07:33:10.169Z,17.40
2019-05-17T07:35:42.915Z,16.93
2019-05-17T07:38:15.382Z,16.03
2019-05-17T07:40:49.974Z,17.03
2019-05-17T07:43:21.969Z,17.33
2019-05-17T07:45:54.247Z,15.03
2019-05-17T07:48:26.458Z,16.73
2019-05-17T07:50:59.381Z,18.23
2019-05-17T07:53:31.830Z,17.70
2019-05-17T07:56:04.305Z,19.00
2019-05-17T07:58:36.539Z,14.50
2019-05-17T08:01:10.062Z,14.23
2019-05-17T08:03:42.518Z,14.97
2019-05-17T08:06:14.802Z,14.93
2019-05-17T08:08:49.917Z,13.87
2019-05-17T08:11:20.960Z,14.80
2019-05-17T08:13:53.271Z,14.43
2019-05-17T08:16:25.595Z,13.47
2019-05-17T08:19:00.164Z,13.53
2019-05-17T08:21:32.193Z,12.93
2019-05-17T08:24:04.430Z,13.07
2019-05-17T08:26:36.713Z,13.33
2019-05-17T08:29:10.984Z,14.87
2019-05-17T08:31:44.488Z,13.80
2019-05-17T08:34:16.527Z,12.30
2019-05-17T08:36:49.849Z,13.13
2019-05-17T08:39:22.201Z,13.80
2019-05-17T08:41:54.460Z,15.77
2019-05-17T08:44:26.697Z,12.93
2019-05-17T08:46:59.486Z,14.57
2019-05-17T08:49:31.978Z,13.83
2019-05-17T08:52:04.210Z,13.30
2019-05-17T08:54:36.499Z,15.03
2019-05-17T08:57:09.583Z,12.37
2019-05-17T08:59:41.892Z,10.80
2019-05-17T09:02:16.147Z,11.57
2019-05-17T09:04:49.799Z,12.67
2019-05-17T09:07:22.224Z,12.37
2019-05-17T09:09:54.444Z,13.27
2019-05-17T09:12:26.688Z,12.13
2019-05-17T09:15:00.434Z,11.23
2019-05-17T09:17:32.926Z,15.27
2019-05-17T09:20:05.165Z,11.33
2019-05-17T09:22:39.651Z,11.47
2019-05-17T09:25:17.085Z,11.03
2019-05-17T09:27:45.514Z,10.70
2019-05-17T09:30:20.201Z,12.53
2019-05-17T09:32:51.869Z,10.20
2019-05-17T09:35:25.211Z,10.20
2019-05-17T09:37:57.439Z,10.17
2019-05-17T09:40:29.679Z,9.77
2019-05-17T09:43:02.181Z,10.63
2019-05-17T09:45:34.417Z,10.27
2019-05-17T09:48:06.818Z,10.53
2019-05-17T09:50:39.879Z,10.77
2019-05-17T09:53:12.468Z,10.03
2019-05-17T09:55:44.753Z,12.27
2019-05-17T09:58:21.429Z,11.00
2019-05-17T10:00:52.360Z,13.97
2019-05-17T10:03:24.659Z,9.67
2019-05-17T10:05:56.964Z,12.20
2019-05-17T10:08:29.223Z,11.23
2019-05-17T10:11:08.347Z,9.93
2019-05-17T10:13:35.656Z,10.17
2019-05-17T10:16:10.140Z,10.17
2019-05-17T10:18:42.254Z,9.17
2019-05-17T10:21:14.525Z,9.13
2019-05-17T10:23:46.763Z,9.13
2019-05-17T10:26:22.297Z,10.70
2019-05-17T10:28:54.592Z,11.47
2019-05-17T10:31:26.829Z,9.70
2019-05-17T10:34:01.062Z,8.67
2019-05-17T10:36:33.044Z,7.63
2019-05-17T10:39:05.282Z,9.73
2019-05-17T10:41:37.673Z,10.67
2019-05-17T10:44:09.901Z,14.90
2019-05-17T10:46:42.246Z,11.17
2019-05-17T10:49:14.475Z,10.67
2019-05-17T10:51:46.682Z,10.37
2019-05-17T10:54:20.598Z,10.77
2019-05-17T10:56:55.003Z,8.43
2019-05-17T10:59:27.451Z,9.27
2019-05-17T11:01:59.824Z,10.80
2019-05-17T11:04:32.348Z,10.67
2019-05-17T11:07:04.576Z,9.70
2019-05-17T11:09:39.862Z,9.50
2019-05-17T11:12:10.799Z,9.00
2019-05-17T11:14:52.587Z,9.87
2019-05-17T11:17:16.966Z,10.03
2019-05-17T11:19:49.329Z,9.10
2019-05-17T11:22:21.549Z,9.57
2019-05-17T11:24:53.892Z,9.03
2019-05-17T11:27:28.415Z,10.03
2019-05-17T11:30:03.114Z,9.40
2019-05-17T11:32:35.422Z,9.30
2019-05-17T11:35:07.661Z,9.97
2019-05-17T11:37:39.894Z,8.97
2019-05-17T11:40:12.195Z,8.97
2019-05-17T11:42:44.571Z,9.10
2019-05-17T11:45:27.304Z,8.63
2019-05-17T11:47:50.963Z,9.90
2019-05-17T11:50:23.274Z,8.90
2019-05-17T11:52:55.698Z,10.03
2019-05-17T11:55:27.924Z,9.23
2019-05-17T11:58:00.160Z,9.97
2019-05-17T12:00:32.415Z,12.63
2019-05-17T12:03:04.721Z,7.90
2019-05-17T12:05:37.047Z,8.37
2019-05-17T12:08:09.285Z,10.80
2019-05-17T12:10:41.631Z,7.63
2019-05-17T12:13:14.191Z,6.70
2019-05-17T12:15:46.423Z,7.50
2019-05-17T12:18:18.651Z,7.47
2019-05-17T12:20:50.920Z,8.37
2019-05-17T12:23:24.833Z,7.28
2019-05-17T12:25:57.624Z,7.87
2019-05-17T12:28:30.442Z,11.25
2019-05-17T12:31:03.354Z,7.40
2019-05-17T12:33:36.240Z,5.70
2019-05-17T12:36:09.220Z,6.42
2019-05-17T12:38:41.471Z,5.37
2019-05-17T12:41:13.761Z,6.63
2019-05-17T12:43:46.049Z,6.20
2019-05-17T12:46:18.339Z,6.93
2019-05-17T12:48:50.574Z,8.97
2019-05-17T12:51:22.879Z,8.77
2019-05-17T12:53:55.207Z,6.40
2019-05-17T12:56:27.522Z,7.80
2019-05-17T12:58:59.755Z,7.97
2019-05-17T13:01:32.283Z,9.57
2019-05-17T13:04:04.555Z,8.20
2019-05-17T13:06:36.776Z,10.00
2019-05-17T13:09:09.244Z,7.67
2019-05-17T13:11:41.529Z,8.63
2019-05-17T13:14:13.804Z,9.03
2019-05-17T13:16:46.111Z,10.27
2019-05-17T13:19:18.330Z,8.47
2019-05-17T13:21:50.634Z,9.53
2019-05-17T13:24:22.865Z,10.53
2019-05-17T13:26:55.430Z,9.40
2019-05-17T13:29:27.639Z,9.57
2019-05-17T13:31:59.879Z,7.77
2019-05-17T13:34:32.209Z,11.27
2019-05-17T13:37:05.623Z,9.60
2019-05-17T13:39:38.137Z,9.17
2019-05-17T13:42:10.404Z,8.70
2019-05-17T13:44:42.632Z,8.60
2019-05-17T13:47:14.684Z,8.50
2019-05-17T13:49:46.915Z,8.80
2019-05-17T13:52:21.154Z,8.33
2019-05-17T13:54:53.586Z,11.23
2019-05-17T13:57:25.888Z,9.57
2019-05-17T13:59:58.203Z,10.80
2019-05-17T14:02:30.466Z,8.67
2019-05-17T14:05:02.718Z,8.20
2019-05-17T14:07:35.158Z,7.77
2019-05-17T14:10:07.352Z,8.73
2019-05-17T14:12:39.663Z,9.00
2019-05-17T14:15:12.050Z,10.43
2019-05-17T14:17:44.435Z,7.60
2019-05-17T14:20:16.707Z,7.20
2019-05-17T14:22:49.003Z,7.57
2019-05-17T14:25:21.331Z,8.70
2019-05-17T14:27:53.532Z,8.70
2019-05-17T14:30:25.727Z,7.27
2019-05-17T14:32:58.161Z,8.17
2019-05-17T14:35:30.407Z,7.00
2019-05-17T14:38:02.630Z,7.50
2019-05-17T14:41:05.091Z,7.03
2019-05-17T14:43:08.993Z,7.43
2019-05-17T14:45:41.673Z,10.97
2019-05-17T14:48:13.959Z,11.83
2019-05-17T14:50:46.238Z,8.07
2019-05-17T14:53:18.559Z,8.37
2019-05-17T14:55:50.822Z,8.93
2019-05-17T14:58:23.123Z,8.60
2019-05-17T15:00:55.541Z,9.03
2019-05-17T15:03:28.060Z,9.93
2019-05-17T15:06:00.361Z,8.20
2019-05-17T15:08:32.611Z,10.07
2019-05-17T15:11:04.833Z,8.93
2019-05-17T15:13:37.095Z,9.37
2019-05-17T15:16:09.332Z,9.20
2019-05-17T15:18:41.669Z,10.27
2019-05-17T15:21:15.582Z,8.87
2019-05-17T15:23:47.857Z,9.67
2019-05-17T15:26:20.123Z,9.07
2019-05-17T15:28:52.737Z,9.93
2019-05-17T15:31:24.994Z,11.70
2019-05-17T15:33:57.235Z,11.37
2019-05-17T15:36:29.555Z,12.37
2019-05-17T15:39:01.914Z,10.97
2019-05-17T15:41:35.727Z,11.53
2019-05-17T15:44:08.366Z,12.20
2019-05-17T15:46:40.752Z,12.17
2019-05-17T15:49:13.119Z,12.17
2019-05-17T15:51:45.376Z,13.33
2019-05-17T15:54:17.722Z,12.67
2019-05-17T15:56:50.030Z,16.93
2019-05-17T15:59:22.285Z,11.10
2019-05-17T16:01:54.535Z,11.20
2019-05-17T16:04:26.847Z,11.33
2019-05-17T16:07:00.691Z,11.60
2019-05-17T16:09:32.963Z,11.67
2019-05-17T16:12:05.287Z,12.67
2019-05-17T16:14:37.590Z,12.40
2019-05-17T16:17:09.857Z,13.20
2019-05-17T16:19:42.220Z,13.67
2019-05-17T16:22:14.623Z,12.67
2019-05-17T16:24:47.264Z,14.43
2019-05-17T16:27:19.505Z,10.90
2019-05-17T16:29:51.805Z,11.43
2019-05-17T16:32:24.112Z,10.50
2019-05-17T16:34:56.675Z,14.00
2019-05-17T16:37:29.150Z,12.20
2019-05-17T16:40:01.410Z,12.67
2019-05-17T16:42:33.870Z,13.47
2019-05-17T16:45:06.153Z,11.10
2019-05-17T16:47:38.515Z,11.43
2019-05-17T16:50:10.884Z,12.43
2019-05-17T16:52:43.381Z,14.87
2019-05-17T16:55:15.756Z,18.73
2019-05-17T16:57:48.022Z,15.17
2019-05-17T17:00:20.499Z,14.70
2019-05-17T17:02:55.277Z,13.90
2019-05-17T17:05:30.564Z,12.23
2019-05-17T17:08:02.904Z,13.97
2019-05-17T17:10:35.142Z,15.87
2019-05-17T17:13:07.404Z,14.70
2019-05-17T17:15:40.033Z,14.80
2019-05-17T17:18:12.349Z,16.03
2019-05-17T17:20:44.677Z,14.13
2019-05-17T17:23:16.999Z,14.63
2019-05-17T17:25:49.236Z,14.73
2019-05-17T17:28:24.966Z,11.93
2019-05-17T17:30:55.588Z,14.50
2019-05-17T17:33:27.897Z,15.33
2019-05-17T17:36:00.151Z,14.87
2019-05-17T17:38:32.522Z,13.33
2019-05-17T17:41:05.035Z,16.60
2019-05-17T17:43:37.456Z,15.17
2019-05-17T17:46:10.520Z,16.03
2019-05-17T17:48:45.787Z,14.60
2019-05-17T17:51:16.992Z,17.07
2019-05-17T17:53:50.748Z,14.47
2019-05-17T17:56:23.152Z,17.00
2019-05-17T17:58:55.437Z,15.67
2019-05-17T18:01:27.704Z,17.03
2019-05-17T18:04:00.287Z,17.10
2019-05-17T18:06:32.989Z,18.30
2019-05-17T18:09:05.301Z,15.00
2019-05-17T18:11:37.881Z,17.13
2019-05-17T18:14:13.259Z,15.73
2019-05-17T18:16:44.166Z,15.97
2019-05-17T18:19:16.415Z,16.13
2019-05-17T18:21:48.655Z,15.53
2019-05-17T18:24:20.944Z,20.07
2019-05-17T18:26:53.293Z,17.93
2019-05-17T18:29:25.693Z,14.80
2019-05-17T18:31:57.985Z,15.93
2019-05-17T18:34:30.210Z,17.17
2019-05-17T18:37:04.115Z,16.20
2019-05-17T18:39:36.443Z,14.00
2019-05-17T18:42:08.855Z,15.73
2019-05-17T18:44:41.092Z,18.07
2019-05-17T18:47:13.566Z,15.23
2019-05-17T18:49:45.918Z,17.10
2019-05-17T18:52:18.169Z,16.30
2019-05-17T18:54:50.434Z,21.77
2019-05-17T18:57:22.737Z,15.90
2019-05-17T18:59:55.152Z,18.43
2019-05-17T19:02:27.401Z,15.50
2019-05-17T19:04:59.639Z,18.83
2019-05-17T19:07:31.873Z,17.83
2019-05-17T19:10:04.326Z,14.57
2019-05-17T19:12:36.687Z,16.43
2019-05-17T19:15:08.985Z,18.93
2019-05-17T19:17:41.234Z,20.17
2019-05-17T19:20:13.490Z,18.93
2019-05-17T19:22:46.034Z,18.67
2019-05-17T19:25:19.354Z,16.77
2019-05-17T19:27:51.582Z,18.27
2019-05-17T19:30:25.156Z,15.20
2019-05-17T19:32:57.355Z,15.37
2019-05-17T19:35:29.638Z,14.93
2019-05-17T19:38:01.924Z,16.20
2019-05-17T19:40:34.294Z,15.37
2019-05-17T19:43:06.734Z,17.27
2019-05-17T19:45:39.082Z,15.33
2019-05-17T19:48:11.309Z,15.97
2019-05-17T19:50:43.696Z,16.67
2019-05-17T19:53:16.014Z,15.83
2019-05-17T19:55:48.554Z,17.40
2019-05-17T19:58:21.914Z,19.73
2019-05-17T20:00:54.208Z,16.77
2019-05-17T20:03:26.471Z,16.10
2019-05-17T20:05:59.035Z,17.03
2019-05-17T20:08:31.440Z,15.90
2019-05-17T20:11:03.700Z,16.60
2019-05-17T20:13:36.074Z,18.10
2019-05-17T20:16:08.447Z,16.53
2019-05-17T20:18:40.830Z,16.93
2019-05-17T20:21:13.285Z,17.13
2019-05-17T20:23:45.554Z,17.77
2019-05-17T20:26:17.813Z,16.70
2019-05-17T20:28:50.058Z,18.20
2019-05-17T20:31:22.325Z,17.50
2019-05-17T20:33:54.576Z,18.53
2019-05-17T20:36:26.793Z,18.20
2019-05-17T20:38:59.141Z,20.73
2019-05-17T20:41:31.389Z,18.57
2019-05-17T20:44:03.661Z,16.67
2019-05-17T20:46:35.904Z,17.93
2019-05-17T20:49:08.126Z,18.57
2019-05-17T20:51:40.486Z,18.07
2019-05-17T20:54:12.960Z,18.30
2019-05-17T20:56:45.262Z,19.40
2019-05-17T20:59:17.583Z,17.13
2019-05-17T21:01:50.070Z,19.30
2019-05-17T21:04:22.283Z,20.43
2019-05-17T21:06:54.644Z,18.73
2019-05-17T21:09:26.937Z,19.27
2019-05-17T21:11:59.176Z,19.67
2019-05-17T21:14:31.537Z,20.00
2019-05-17T21:17:03.857Z,18.77
2019-05-17T21:19:36.110Z,20.77
2019-05-17T21:22:08.803Z,20.37
2019-05-17T21:24:41.076Z,22.73
2019-05-17T21:27:13.315Z,21.60
2019-05-17T21:29:46.806Z,23.47
2019-05-17T21:32:20.163Z,24.00
2019-05-17T21:34:52.513Z,21.33
2019-05-17T21:37:24.766Z,22.67
2019-05-17T21:39:57.003Z,23.23
2019-05-17T21:42:29.412Z,21.40
2019-05-17T21:45:01.658Z,22.97
2019-05-17T21:47:33.916Z,25.23
2019-05-17T21:50:06.170Z,22.87
2019-05-17T21:52:38.219Z,23.10
2019-05-17T21:55:10.932Z,22.33
2019-05-17T21:57:43.338Z,26.57
2019-05-17T22:00:15.565Z,25.37
2019-05-17T22:02:49.437Z,26.23
2019-05-17T22:05:21.756Z,24.33
2019-05-17T22:07:53.984Z,26.00
2019-05-17T22:10:26.330Z,25.83
2019-05-17T22:12:58.643Z,29.07
2019-05-17T22:15:31.054Z,30.80
2019-05-17T22:18:03.458Z,30.67
2019-05-17T22:20:35.729Z,29.40
2019-05-17T22:23:08.128Z,31.70
2019-05-17T22:25:40.624Z,30.73
2019-05-17T22:28:13.590Z,31.00
2019-05-17T22:30:45.843Z,31.53
2019-05-17T22:33:18.115Z,31.87
2019-05-17T22:35:52.878Z,34.17
2019-05-17T22:38:25.121Z,33.40
2019-05-17T22:40:57.471Z,31.87
2019-05-17T22:43:29.702Z,31.80
2019-05-17T22:46:01.954Z,34.57
2019-05-17T22:48:34.211Z,33.43
2019-05-17T22:51:06.419Z,32.77
2019-05-17T22:53:38.692Z,32.00
2019-05-17T22:56:10.956Z,32.93
2019-05-17T22:58:45.210Z,33.93
2019-05-17T23:01:17.469Z,32.77
2019-05-17T23:03:49.758Z,32.43
2019-05-17T23:06:21.998Z,34.03
2019-05-17T23:08:54.278Z,31.13
2019-05-17T23:11:26.722Z,35.63
2019-05-17T23:14:01.003Z,28.07
2019-05-17T23:16:33.332Z,29.57
2019-05-17T23:19:05.545Z,30.97
2019-05-17T23:21:37.833Z,32.60
2019-05-17T23:24:10.032Z,30.20
2019-05-17T23:26:42.533Z,29.90
2019-05-17T23:29:14.800Z,29.37
2019-05-17T23:31:47.039Z,27.40
2019-05-17T23:34:19.356Z,33.50
2019-05-17T23:36:51.640Z,29.20
2019-05-17T23:39:23.909Z,31.17
2019-05-17T23:41:56.261Z,28.00
2019-05-17T23:44:28.498Z,28.40
2019-05-17T23:47:07.122Z,29.63
2019-05-17T23:49:34.940Z,27.83
2019-05-17T23:52:07.357Z,28.80
2019-05-17T23:54:39.624Z,29.33
2019-05-17T23:57:11.977Z,29.37
2019-05-17T23:59:45.273Z,31.33
